Time;durP1;ratioP1;P1;durP2;ratioP2;P2;SDS_P1;SDS_P2;PMS_P1;PMS_P2;Temp;Humidity;BMP_temperature;BMP_pressure;BME280_temperature;BME280_humidity;BME280_pressure;Samples;Min_cycle;Max_cycle;Signal;HPM_P1;HPM_P2
2021/11/23 00:00:56;;;;;;;0.73;0.43;;;16.00;99.90;;;;;;5028944;28;20402;-74
2021/11/23 00:03:22;;;;;;;1.63;0.70;;;16.00;99.90;;;;;;5028075;28;20045;-74
2021/11/23 00:05:48;;;;;;;4.28;0.65;;;16.00;99.90;;;;;;5028777;28;20041;-74
2021/11/23 00:08:15;;;;;;;2.72;0.60;;;16.00;99.90;;;;;;5026992;28;20080;-74
2021/11/23 00:10:42;;;;;;;3.42;0.85;;;15.90;99.90;;;;;;5028407;28;20116;-74
2021/11/23 00:13:09;;;;;;;2.17;0.90;;;16.00;99.90;;;;;;5028164;28;20103;-74
2021/11/23 00:15:35;;;;;;;0.98;0.60;;;15.90;99.90;;;;;;5026867;28;20046;-74
2021/11/23 00:18:13;;;;;;;2.65;0.60;;;15.90;99.90;;;;;;5027726;28;20052;-75
2021/11/23 00:20:42;;;;;;;1.10;0.80;;;15.90;99.90;;;;;;5024274;28;20493;-74
2021/11/23 00:23:08;;;;;;;6.75;0.60;;;15.90;99.90;;;;;;5022457;28;20049;-76
2021/11/23 00:25:34;;;;;;;1.40;0.60;;;15.90;99.90;;;;;;5031341;28;20045;-75
2021/11/23 00:28:00;;;;;;;4.03;0.80;;;15.90;99.90;;;;;;5020970;28;20046;-74
2021/11/23 00:30:27;;;;;;;5.25;0.80;;;15.90;99.90;;;;;;5026155;28;20728;-75
2021/11/23 00:32:54;;;;;;;1.73;0.63;;;15.90;99.90;;;;;;5023370;28;20092;-76
2021/11/23 00:35:20;;;;;;;2.15;0.98;;;15.90;99.90;;;;;;5011293;28;20433;-74
2021/11/23 00:37:47;;;;;;;3.70;1.00;;;15.90;99.90;;;;;;5021363;28;20042;-74
2021/11/23 00:40:13;;;;;;;0.70;0.65;;;15.90;99.90;;;;;;5023772;28;20045;-75
2021/11/23 00:42:39;;;;;;;1.55;0.60;;;15.90;99.90;;;;;;5006066;28;20042;-74
2021/11/23 00:45:06;;;;;;;1.77;0.57;;;15.90;99.90;;;;;;5020988;28;20058;-75
2021/11/23 00:47:32;;;;;;;1.85;0.55;;;15.80;99.90;;;;;;5026070;28;20050;-74
2021/11/23 00:49:58;;;;;;;2.13;0.73;;;15.80;99.90;;;;;;5021068;28;20053;-74
2021/11/23 00:52:24;;;;;;;3.00;0.55;;;15.80;99.90;;;;;;5024902;28;20525;-74
2021/11/23 00:54:50;;;;;;;3.45;0.70;;;15.90;99.90;;;;;;5023383;28;20124;-74
2021/11/23 00:57:16;;;;;;;0.77;0.50;;;15.90;99.90;;;;;;5020074;28;20121;-74
2021/11/23 00:59:42;;;;;;;0.90;0.55;;;15.80;99.90;;;;;;5025018;28;20444;-74
2021/11/23 01:02:08;;;;;;;1.80;0.68;;;15.80;99.90;;;;;;5021628;28;20461;-74
2021/11/23 01:04:34;;;;;;;0.60;0.40;;;15.80;99.90;;;;;;5010186;28;20069;-74
2021/11/23 01:07:00;;;;;;;0.70;0.50;;;15.80;99.90;;;;;;5026351;28;20046;-74
2021/11/23 01:09:26;;;;;;;3.15;0.80;;;15.80;99.90;;;;;;5014868;28;20753;-73
2021/11/23 01:11:52;;;;;;;4.20;0.73;;;15.80;99.90;;;;;;5022678;28;20049;-73
2021/11/23 01:14:18;;;;;;;1.33;0.57;;;15.80;99.90;;;;;;5026595;28;20052;-74
2021/11/23 01:16:47;;;;;;;1.60;0.75;;;15.80;99.90;;;;;;5014215;28;20048;-74
2021/11/23 01:19:14;;;;;;;3.40;0.95;;;15.80;99.90;;;;;;5036375;28;20057;-75
2021/11/23 01:21:41;;;;;;;2.28;0.90;;;15.70;99.90;;;;;;5017694;28;20142;-74
2021/11/23 01:24:08;;;;;;;1.17;0.50;;;15.70;99.90;;;;;;5031158;28;20081;-74
2021/11/23 01:26:34;;;;;;;0.90;0.75;;;15.70;99.90;;;;;;5029863;28;20596;-74
2021/11/23 01:29:00;;;;;;;2.25;0.93;;;15.70;99.90;;;;;;5029971;28;20050;-75
2021/11/23 01:31:26;;;;;;;2.60;0.70;;;15.70;99.90;;;;;;5028563;28;20073;-74
2021/11/23 01:33:52;;;;;;;1.67;0.75;;;15.70;99.90;;;;;;5029855;28;20057;-74
2021/11/23 01:36:18;;;;;;;3.78;1.13;;;15.70;99.90;;;;;;5029104;28;20064;-74
2021/11/23 01:38:44;;;;;;;1.65;0.63;;;15.70;99.90;;;;;;5028530;28;20055;-74
2021/11/23 01:41:10;;;;;;;1.02;0.55;;;15.70;99.90;;;;;;5030849;28;20112;-75
2021/11/23 01:43:36;;;;;;;1.67;0.63;;;15.70;99.90;;;;;;5029222;28;20879;-74
2021/11/23 01:46:02;;;;;;;2.22;0.85;;;15.70;99.90;;;;;;5013164;28;20053;-75
2021/11/23 01:48:28;;;;;;;0.95;0.68;;;15.70;99.90;;;;;;5029581;28;20045;-75
2021/11/23 01:50:55;;;;;;;2.85;0.90;;;15.70;99.90;;;;;;5012415;28;20057;-74
2021/11/23 01:53:20;;;;;;;1.08;0.60;;;15.70;99.90;;;;;;5028931;28;20053;-76
2021/11/23 01:55:46;;;;;;;0.82;0.60;;;15.70;99.90;;;;;;5030676;28;20104;-74
2021/11/23 01:58:13;;;;;;;1.00;0.60;;;15.60;99.90;;;;;;5029564;28;20068;-74
2021/11/23 02:00:40;;;;;;;1.27;0.75;;;15.60;99.90;;;;;;5029579;28;20489;-74
2021/11/23 02:03:07;;;;;;;1.10;0.68;;;15.70;99.90;;;;;;5030439;28;20081;-74
2021/11/23 02:05:34;;;;;;;2.38;0.77;;;15.60;99.90;;;;;;5029038;28;20045;-74
2021/11/23 02:08:01;;;;;;;0.77;0.60;;;15.60;99.90;;;;;;5030523;28;20041;-74
2021/11/23 02:10:27;;;;;;;1.55;0.40;;;15.70;99.90;;;;;;5028270;28;20408;-74
2021/11/23 02:12:53;;;;;;;0.95;0.68;;;15.60;99.90;;;;;;5030354;28;20063;-75
2021/11/23 02:15:19;;;;;;;2.78;0.63;;;15.70;99.90;;;;;;5028999;28;20042;-76
2021/11/23 02:17:47;;;;;;;2.83;0.50;;;15.60;99.90;;;;;;5027661;28;20132;-75
2021/11/23 02:20:16;;;;;;;3.40;0.63;;;15.60;99.90;;;;;;5028865;28;20555;-76
2021/11/23 02:22:42;;;;;;;1.92;0.55;;;15.60;99.90;;;;;;5026551;28;20122;-74
2021/11/23 02:25:09;;;;;;;1.85;0.65;;;15.60;99.90;;;;;;5029033;28;20077;-75
2021/11/23 02:27:36;;;;;;;2.90;0.85;;;15.60;99.90;;;;;;5024086;28;20072;-74
2021/11/23 02:30:04;;;;;;;1.20;0.68;;;15.60;99.90;;;;;;5028754;28;20120;-74
2021/11/23 02:32:57;;;;;;;1.23;0.60;;;15.60;99.90;;;;;;5025630;28;20112;-74
2021/11/23 02:35:24;;;;;;;1.20;0.50;;;15.60;99.90;;;;;;4995207;28;20077;-75
2021/11/23 02:37:53;;;;;;;2.50;0.73;;;15.60;99.90;;;;;;5021276;28;20478;-75
2021/11/23 02:40:19;;;;;;;1.90;0.70;;;15.60;99.90;;;;;;5025560;28;20482;-74
2021/11/23 02:42:46;;;;;;;1.10;0.57;;;15.60;99.90;;;;;;5020452;28;20048;-75
2021/11/23 02:45:15;;;;;;;1.13;0.70;;;15.60;99.90;;;;;;5026581;28;20042;-76
2021/11/23 02:47:41;;;;;;;0.43;0.40;;;15.60;99.90;;;;;;5021791;28;20143;-74
2021/11/23 02:50:11;;;;;;;0.77;0.50;;;15.50;99.90;;;;;;5022970;28;20041;-75
2021/11/23 02:52:38;;;;;;;3.03;0.70;;;15.60;99.90;;;;;;5021627;28;20140;-75
2021/11/23 02:55:05;;;;;;;0.70;0.47;;;15.60;99.90;;;;;;5021571;28;20056;-74
2021/11/23 02:57:34;;;;;;;0.60;0.45;;;15.50;99.90;;;;;;5020029;28;20586;-75
2021/11/23 03:00:09;;;;;;;2.15;0.60;;;15.50;99.90;;;;;;5024491;28;20041;-75
2021/11/23 03:02:36;;;;;;;0.82;0.50;;;15.50;99.90;;;;;;5011971;28;20049;-75
2021/11/23 03:05:03;;;;;;;1.20;0.40;;;15.50;99.90;;;;;;5019247;28;20096;-75
2021/11/23 03:07:29;;;;;;;1.42;0.60;;;15.50;99.90;;;;;;5016629;28;20053;-75
2021/11/23 03:09:56;;;;;;;1.27;0.50;;;15.50;99.90;;;;;;5026594;28;20128;-76
2021/11/23 03:12:25;;;;;;;1.58;0.50;;;15.50;99.90;;;;;;5028659;28;20049;-74
2021/11/23 03:14:50;;;;;;;0.57;0.45;;;15.50;99.90;;;;;;5028855;28;20076;-74
2021/11/23 03:17:17;;;;;;;0.43;0.43;;;15.50;99.90;;;;;;5016815;28;20588;-75
2021/11/23 03:19:45;;;;;;;0.55;0.43;;;15.50;99.90;;;;;;5015853;28;20116;-74
2021/11/23 03:22:13;;;;;;;2.53;0.75;;;15.50;99.90;;;;;;5029758;28;20062;-74
2021/11/23 03:24:39;;;;;;;1.65;0.30;;;15.50;99.90;;;;;;5029074;28;20037;-74
2021/11/23 03:27:06;;;;;;;1.52;0.75;;;15.50;99.90;;;;;;5021998;28;20152;-75
2021/11/23 03:29:33;;;;;;;2.58;0.77;;;15.50;99.90;;;;;;5025797;28;20804;-74
2021/11/23 03:32:00;;;;;;;0.40;0.40;;;15.50;99.90;;;;;;5028209;28;20049;-74
2021/11/23 03:34:26;;;;;;;0.43;0.43;;;15.50;99.90;;;;;;5016873;28;20046;-75
2021/11/23 03:36:52;;;;;;;1.70;0.40;;;15.40;99.90;;;;;;5029342;28;20056;-74
2021/11/23 03:39:18;;;;;;;0.50;0.40;;;15.50;99.90;;;;;;5024173;28;20045;-75
2021/11/23 03:41:44;;;;;;;0.47;0.40;;;15.50;99.90;;;;;;5019377;28;20041;-74
2021/11/23 03:44:10;;;;;;;0.73;0.40;;;15.40;99.90;;;;;;5029601;28;20124;-74
2021/11/23 03:46:36;;;;;;;0.45;0.45;;;15.40;99.90;;;;;;5028682;28;20048;-74
2021/11/23 03:49:02;;;;;;;0.85;0.65;;;15.40;99.90;;;;;;5029606;28;20045;-74
2021/11/23 03:51:27;;;;;;;1.33;0.55;;;15.40;99.90;;;;;;5027668;28;20116;-76
2021/11/23 03:53:53;;;;;;;0.75;0.50;;;15.40;99.90;;;;;;5029226;28;20084;-74
2021/11/23 03:56:20;;;;;;;2.17;0.47;;;15.40;99.90;;;;;;5014985;28;20038;-74
2021/11/23 03:58:46;;;;;;;1.35;0.77;;;15.40;99.90;;;;;;5020846;28;20037;-75
2021/11/23 04:01:11;;;;;;;1.15;0.55;;;15.40;99.90;;;;;;5031020;28;20053;-74
2021/11/23 04:03:38;;;;;;;2.72;0.50;;;15.40;99.90;;;;;;5032524;28;20034;-74
2021/11/23 04:06:04;;;;;;;1.90;0.70;;;15.40;99.90;;;;;;5015356;28;20104;-74
2021/11/23 04:08:31;;;;;;;1.23;0.55;;;15.40;99.90;;;;;;5031830;28;20045;-76
2021/11/23 04:10:57;;;;;;;1.08;0.50;;;15.30;99.90;;;;;;5029471;28;20050;-74
2021/11/23 04:13:23;;;;;;;1.30;0.60;;;15.40;99.90;;;;;;5030332;28;20561;-74
2021/11/23 04:15:49;;;;;;;3.60;0.88;;;15.30;99.90;;;;;;5032254;28;20128;-75
2021/11/23 04:18:15;;;;;;;1.70;0.70;;;15.30;99.90;;;;;;5033060;28;20120;-74
2021/11/23 04:20:41;;;;;;;0.50;0.43;;;15.30;99.90;;;;;;5031109;28;20474;-75
2021/11/23 04:23:07;;;;;;;1.27;0.40;;;15.30;99.90;;;;;;4998226;28;20049;-74
2021/11/23 04:25:33;;;;;;;0.73;0.55;;;15.30;99.90;;;;;;5024666;28;20090;-76
2021/11/23 04:27:59;;;;;;;2.05;0.57;;;15.20;99.90;;;;;;5031544;28;20048;-74
2021/11/23 04:30:25;;;;;;;1.17;0.40;;;15.30;99.90;;;;;;5032616;28;20045;-75
2021/11/23 04:32:51;;;;;;;1.63;0.68;;;15.30;99.90;;;;;;5016691;28;20054;-74
2021/11/23 04:35:18;;;;;;;1.52;0.63;;;15.30;99.90;;;;;;5021173;28;20409;-74
2021/11/23 04:37:45;;;;;;;2.08;0.93;;;15.30;99.90;;;;;;5031825;28;20492;-75
2021/11/23 04:40:13;;;;;;;0.95;0.30;;;15.20;99.90;;;;;;5032674;28;20099;-74
2021/11/23 04:42:39;;;;;;;0.65;0.47;;;15.20;99.90;;;;;;5031754;28;20441;-76
2021/11/23 04:45:07;;;;;;;2.80;0.40;;;15.20;99.90;;;;;;5031533;28;20393;-74
2021/11/23 04:47:34;;;;;;;0.98;0.43;;;15.20;99.90;;;;;;5014677;28;20049;-76
2021/11/23 04:50:00;;;;;;;1.38;0.75;;;15.20;99.90;;;;;;5030725;28;20048;-74
2021/11/23 04:52:26;;;;;;;2.38;1.10;;;15.20;99.90;;;;;;5030736;28;20057;-74
2021/11/23 04:54:52;;;;;;;2.53;0.73;;;15.20;99.90;;;;;;5021962;28;20053;-74
2021/11/23 04:57:18;;;;;;;0.73;0.50;;;15.20;99.90;;;;;;5030825;28;20049;-74
2021/11/23 04:59:44;;;;;;;1.90;0.40;;;15.10;99.90;;;;;;5029790;28;20123;-72
2021/11/23 05:02:10;;;;;;;8.32;0.60;;;15.20;99.90;;;;;;5029417;28;20180;-74
2021/11/23 05:04:36;;;;;;;1.55;0.75;;;15.10;99.90;;;;;;5012039;28;20544;-76
2021/11/23 05:07:02;;;;;;;1.33;0.50;;;15.10;99.90;;;;;;5024845;28;20045;-74
2021/11/23 05:09:27;;;;;;;5.47;0.80;;;15.10;99.90;;;;;;5029844;28;20052;-74
2021/11/23 05:11:53;;;;;;;2.83;0.60;;;15.10;99.90;;;;;;5031246;28;20482;-74
2021/11/23 05:14:20;;;;;;;2.90;0.45;;;15.10;99.90;;;;;;5028938;28;20041;-74
2021/11/23 05:16:46;;;;;;;2.72;0.85;;;15.10;99.90;;;;;;5031400;28;20575;-74
2021/11/23 05:19:11;;;;;;;1.38;0.82;;;15.10;99.90;;;;;;5030622;28;20092;-74
2021/11/23 05:21:37;;;;;;;1.15;0.47;;;15.10;99.90;;;;;;5030408;28;20120;-76
2021/11/23 05:24:03;;;;;;;0.60;0.40;;;15.10;99.90;;;;;;5031160;28;20061;-74
2021/11/23 05:26:29;;;;;;;2.95;0.50;;;15.10;99.90;;;;;;5030315;28;20620;-75
2021/11/23 05:28:55;;;;;;;1.17;0.52;;;15.00;99.90;;;;;;5031096;28;20060;-74
2021/11/23 05:31:21;;;;;;;1.98;0.85;;;15.00;99.90;;;;;;5030192;28;20089;-74
2021/11/23 05:33:46;;;;;;;3.78;0.70;;;15.00;99.90;;;;;;5030974;28;20049;-74
2021/11/23 05:36:12;;;;;;;0.93;0.35;;;15.10;99.90;;;;;;5015502;28;20054;-74
2021/11/23 05:38:38;;;;;;;3.10;0.80;;;15.00;99.90;;;;;;5023660;28;20048;-74
2021/11/23 05:41:04;;;;;;;0.50;0.38;;;15.00;99.90;;;;;;5025005;28;20485;-74
2021/11/23 05:43:32;;;;;;;0.93;0.63;;;15.00;99.90;;;;;;5016542;28;20042;-74
2021/11/23 05:45:58;;;;;;;2.65;0.85;;;15.00;99.90;;;;;;5020425;28;20518;-75
2021/11/23 05:48:24;;;;;;;0.75;0.57;;;15.00;99.90;;;;;;5029406;28;20037;-75
2021/11/23 05:50:50;;;;;;;1.00;0.70;;;15.00;99.90;;;;;;5030505;28;20412;-75
2021/11/23 05:53:16;;;;;;;1.05;0.57;;;14.90;99.90;;;;;;5031013;28;20084;-74
2021/11/23 05:55:42;;;;;;;1.05;0.45;;;15.00;99.90;;;;;;5025397;28;20049;-76
2021/11/23 05:58:09;;;;;;;3.90;0.68;;;15.00;99.90;;;;;;5040435;28;20064;-74
2021/11/23 06:00:35;;;;;;;1.95;0.80;;;14.90;99.90;;;;;;5030961;28;20033;-74
2021/11/23 06:03:01;;;;;;;1.17;0.50;;;14.90;99.90;;;;;;5012893;28;20049;-75
2021/11/23 06:05:27;;;;;;;1.92;0.52;;;14.90;99.90;;;;;;5029970;28;20060;-74
2021/11/23 06:07:53;;;;;;;0.43;0.32;;;15.00;99.90;;;;;;5029568;28;20045;-75
2021/11/23 06:10:20;;;;;;;0.90;0.38;;;14.90;99.90;;;;;;5029665;28;20037;-74
2021/11/23 06:12:46;;;;;;;0.60;0.47;;;14.90;99.90;;;;;;5029984;28;20041;-75
2021/11/23 06:15:13;;;;;;;1.42;0.60;;;14.90;99.90;;;;;;5030848;28;20495;-74
2021/11/23 06:17:40;;;;;;;1.80;0.70;;;14.90;99.90;;;;;;5027228;28;20077;-74
2021/11/23 06:20:07;;;;;;;0.98;0.57;;;14.90;99.90;;;;;;5030208;28;20120;-74
2021/11/23 06:22:34;;;;;;;0.55;0.50;;;14.90;99.90;;;;;;5015508;28;20054;-74
2021/11/23 06:25:00;;;;;;;0.90;0.50;;;14.90;99.90;;;;;;5030039;28;20041;-74
2021/11/23 06:27:26;;;;;;;1.40;0.50;;;14.90;99.90;;;;;;5029940;28;20091;-74
2021/11/23 06:29:52;;;;;;;0.65;0.52;;;14.90;99.90;;;;;;5029662;28;20045;-74
2021/11/23 06:32:17;;;;;;;1.80;1.02;;;14.90;99.90;;;;;;5030296;28;20057;-74
2021/11/23 06:34:44;;;;;;;1.05;0.57;;;14.90;99.90;;;;;;5012668;28;20041;-74
2021/11/23 06:37:09;;;;;;;1.98;0.82;;;14.90;99.90;;;;;;5029249;28;20085;-74
2021/11/23 06:39:35;;;;;;;1.95;0.43;;;14.90;99.90;;;;;;5016330;28;20494;-74
2021/11/23 06:42:01;;;;;;;0.57;0.45;;;15.00;99.90;;;;;;5029807;28;20049;-75
2021/11/23 06:44:26;;;;;;;0.93;0.70;;;15.00;99.90;;;;;;5029166;28;20088;-74
2021/11/23 06:46:52;;;;;;;0.82;0.60;;;15.00;99.90;;;;;;5029383;28;20053;-74
2021/11/23 06:49:18;;;;;;;2.25;0.60;;;15.10;99.90;;;;;;5027395;28;20048;-74
2021/11/23 06:51:44;;;;;;;1.88;1.20;;;15.20;99.90;;;;;;5028336;28;20124;-73
2021/11/23 06:54:10;;;;;;;1.52;0.60;;;15.20;99.90;;;;;;5029495;28;20156;-74
2021/11/23 06:56:37;;;;;;;0.38;0.35;;;15.30;99.90;;;;;;5028915;28;20056;-74
2021/11/23 06:59:03;;;;;;;1.73;1.02;;;15.40;99.90;;;;;;5028581;28;20046;-74
2021/11/23 07:01:30;;;;;;;1.05;0.50;;;15.40;99.90;;;;;;5029016;28;20706;-74
2021/11/23 07:03:55;;;;;;;0.70;0.50;;;15.50;99.90;;;;;;5015845;28;20084;-74
2021/11/23 07:06:21;;;;;;;1.02;0.57;;;15.50;99.90;;;;;;5018131;28;20081;-74
2021/11/23 07:08:47;;;;;;;0.88;0.50;;;15.60;99.90;;;;;;5027135;28;20048;-75
2021/11/23 07:11:13;;;;;;;0.77;0.40;;;15.70;99.90;;;;;;5044782;28;20106;-74
2021/11/23 07:13:40;;;;;;;1.00;0.55;;;15.70;99.90;;;;;;5029893;28;20450;-74
2021/11/23 07:16:06;;;;;;;0.63;0.50;;;15.80;99.90;;;;;;5027920;28;20041;-74
2021/11/23 07:18:32;;;;;;;1.25;0.50;;;15.90;99.90;;;;;;5028539;28;20090;-74
2021/11/23 07:20:57;;;;;;;1.52;0.60;;;15.90;99.90;;;;;;5016089;28;20038;-75
2021/11/23 07:23:23;;;;;;;1.20;0.45;;;15.90;99.90;;;;;;5028700;28;20060;-74
2021/11/23 07:25:50;;;;;;;2.50;0.40;;;15.90;99.90;;;;;;5029192;28;20628;-76
2021/11/23 07:28:16;;;;;;;1.23;0.68;;;15.90;99.90;;;;;;5029465;28;20080;-74
2021/11/23 07:30:41;;;;;;;1.50;0.60;;;16.00;99.90;;;;;;5003439;28;20089;-74
2021/11/23 07:33:07;;;;;;;1.33;0.60;;;16.00;99.90;;;;;;5032699;28;20116;-74
2021/11/23 07:35:33;;;;;;;0.47;0.47;;;16.00;99.90;;;;;;5032223;28;20057;-74
2021/11/23 07:37:59;;;;;;;0.50;0.35;;;16.00;99.90;;;;;;5033091;28;20050;-74
2021/11/23 07:40:25;;;;;;;0.88;0.60;;;16.00;99.90;;;;;;5027816;28;20506;-75
2021/11/23 07:42:50;;;;;;;0.88;0.40;;;16.00;99.90;;;;;;5027203;28;20086;-74
2021/11/23 07:45:16;;;;;;;1.35;0.52;;;16.00;99.90;;;;;;5032192;28;20052;-74
2021/11/23 07:47:42;;;;;;;1.35;0.60;;;16.00;99.90;;;;;;5032581;28;20047;-74
2021/11/23 07:50:08;;;;;;;1.55;0.60;;;16.00;99.90;;;;;;5014137;28;20041;-75
2021/11/23 07:52:34;;;;;;;1.83;0.70;;;16.00;99.90;;;;;;5027028;28;20096;-74
2021/11/23 07:55:02;;;;;;;1.33;0.60;;;16.00;99.90;;;;;;5029383;28;20049;-75
2021/11/23 07:57:28;;;;;;;0.98;0.65;;;16.00;99.90;;;;;;5032343;28;20580;-75
2021/11/23 07:59:54;;;;;;;0.75;0.40;;;16.00;99.90;;;;;;5032355;28;20045;-76
2021/11/23 08:02:19;;;;;;;0.55;0.50;;;16.10;99.90;;;;;;5027832;28;20214;-74
2021/11/23 08:04:45;;;;;;;0.65;0.40;;;16.00;99.90;;;;;;5028253;28;20048;-75
2021/11/23 08:07:11;;;;;;;0.88;0.68;;;16.10;99.90;;;;;;5032512;28;20048;-74
2021/11/23 08:09:37;;;;;;;0.85;0.40;;;16.10;99.90;;;;;;5033330;28;20489;-75
2021/11/23 08:12:03;;;;;;;2.08;0.40;;;16.10;99.90;;;;;;5034505;28;20037;-75
2021/11/23 08:14:29;;;;;;;1.30;0.35;;;16.10;99.90;;;;;;5032390;28;20882;-76
2021/11/23 08:16:56;;;;;;;0.93;0.57;;;16.10;99.90;;;;;;5015051;28;20056;-76
2021/11/23 08:19:22;;;;;;;0.88;0.57;;;16.10;99.90;;;;;;5032444;28;20045;-75
2021/11/23 08:21:51;;;;;;;2.30;0.52;;;16.10;99.90;;;;;;5033725;28;20037;-76
2021/11/23 08:24:17;;;;;;;1.98;0.40;;;16.20;99.90;;;;;;5027276;28;20053;-75
2021/11/23 08:26:42;;;;;;;1.13;0.43;;;16.10;99.90;;;;;;5031674;28;20038;-75
2021/11/23 08:29:08;;;;;;;0.90;0.50;;;16.10;99.90;;;;;;5030225;28;20041;-74
2021/11/23 08:31:35;;;;;;;10.13;0.82;;;16.10;99.90;;;;;;5032236;28;20042;-76
2021/11/23 08:34:04;;;;;;;0.90;0.50;;;16.10;99.90;;;;;;5030627;28;20053;-77
2021/11/23 08:36:32;;;;;;;2.60;0.50;;;16.20;99.90;;;;;;5030918;28;20481;-72
2021/11/23 08:38:58;;;;;;;2.13;0.68;;;16.20;99.90;;;;;;5031281;28;20089;-76
2021/11/23 08:41:23;;;;;;;7.78;0.65;;;16.20;99.90;;;;;;5031754;28;20073;-75
2021/11/23 08:43:49;;;;;;;3.25;0.65;;;16.20;99.90;;;;;;5019955;28;20502;-75
2021/11/23 08:46:15;;;;;;;2.83;0.70;;;16.30;99.90;;;;;;4987786;28;20076;-74
2021/11/23 08:48:41;;;;;;;5.65;0.70;;;16.30;99.90;;;;;;5021124;28;20045;-75
2021/11/23 08:51:10;;;;;;;9.02;1.08;;;16.30;99.90;;;;;;5023800;28;20057;-75
2021/11/23 08:53:36;;;;;;;5.20;0.40;;;16.30;99.90;;;;;;5022867;28;20052;-75
2021/11/23 08:56:02;;;;;;;4.75;0.90;;;16.30;99.90;;;;;;5024417;28;20301;-75
2021/11/23 08:58:27;;;;;;;5.25;1.00;;;16.40;99.90;;;;;;5018719;28;20048;-74
2021/11/23 09:00:53;;;;;;;1.63;0.85;;;16.40;99.90;;;;;;5018434;28;20077;-75
2021/11/23 09:03:19;;;;;;;6.95;0.90;;;16.40;99.90;;;;;;5022543;28;20050;-75
2021/11/23 09:05:45;;;;;;;2.92;1.00;;;16.70;99.90;;;;;;5019895;28;20489;-76
2021/11/23 09:08:11;;;;;;;1.70;0.65;;;16.90;99.90;;;;;;4994904;28;20373;-75
2021/11/23 09:10:40;;;;;;;3.30;0.90;;;17.10;99.90;;;;;;5017549;28;20061;-76
2021/11/23 09:13:06;;;;;;;1.90;0.80;;;17.30;99.90;;;;;;5031258;28;20124;-76
2021/11/23 09:15:32;;;;;;;3.03;0.98;;;17.30;99.90;;;;;;5031888;28;20124;-75
2021/11/23 09:18:00;;;;;;;1.60;0.80;;;17.40;99.90;;;;;;5030421;28;20098;-75
2021/11/23 09:20:34;;;;;;;3.75;1.17;;;17.50;99.90;;;;;;5024362;28;20074;-75
2021/11/23 09:23:02;;;;;;;4.15;1.05;;;17.60;99.90;;;;;;5031169;28;20042;-75
2021/11/23 09:25:28;;;;;;;1.85;0.75;;;17.70;99.90;;;;;;5029809;28;20053;-75
2021/11/23 09:27:59;;;;;;;8.10;1.40;;;17.80;99.90;;;;;;5030124;28;20134;-76
2021/11/23 09:30:25;;;;;;;4.45;1.00;;;17.80;99.90;;;;;;5026517;28;20966;-75
2021/11/23 09:32:51;;;;;;;2.95;1.17;;;17.80;99.90;;;;;;5020943;28;20490;-76
2021/11/23 09:35:16;;;;;;;7.20;1.27;;;17.90;99.90;;;;;;5027763;28;20056;-75
2021/11/23 09:37:43;;;;;;;5.43;0.85;;;17.90;99.90;;;;;;4995516;28;20378;-75
2021/11/23 09:40:09;;;;;;;3.65;1.00;;;18.00;99.90;;;;;;5022592;28;20504;-77
2021/11/23 09:42:35;;;;;;;2.08;0.73;;;18.00;99.90;;;;;;5016421;28;20038;-75
2021/11/23 09:45:03;;;;;;;2.95;1.08;;;18.00;99.90;;;;;;5020744;28;20060;-76
2021/11/23 09:47:31;;;;;;;2.67;0.65;;;18.10;99.90;;;;;;5018612;28;20052;-75
2021/11/23 09:50:05;;;;;;;3.30;0.90;;;18.00;99.90;;;;;;5016977;28;20588;-75
2021/11/23 09:52:35;;;;;;;2.63;0.77;;;18.00;99.90;;;;;;5014659;28;20090;-75
2021/11/23 09:55:02;;;;;;;4.68;0.68;;;18.20;99.90;;;;;;5010612;28;20046;-76
2021/11/23 09:57:28;;;;;;;3.55;0.70;;;18.30;99.90;;;;;;5023180;28;20102;-75
2021/11/23 09:59:53;;;;;;;12.05;0.85;;;18.50;99.90;;;;;;5017596;28;20559;-75
2021/11/23 10:02:31;;;;;;;3.20;0.90;;;18.50;99.90;;;;;;5027227;28;20049;-75
2021/11/23 10:05:07;;;;;;;5.00;0.73;;;18.70;99.90;;;;;;5028150;28;20053;-75
2021/11/23 10:07:40;;;;;;;5.07;0.82;;;18.90;99.90;;;;;;5029540;28;20049;-77
2021/11/23 10:10:16;;;;;;;6.47;0.77;;;19.00;99.90;;;;;;5029099;28;20049;-77
2021/11/23 10:12:55;;;;;;;4.00;0.95;;;19.10;99.90;;;;;;5028986;28;20041;-76
2021/11/23 10:15:25;;;;;;;2.75;1.00;;;19.20;99.90;;;;;;5015804;28;20046;-75
2021/11/23 10:17:54;;;;;;;5.53;0.60;;;19.40;99.90;;;;;;5019257;28;20401;-76
2021/11/23 10:20:36;;;;;;;8.23;1.08;;;19.60;99.90;;;;;;5010975;28;20090;-76
2021/11/23 10:23:32;;;;;;;3.95;1.00;;;19.70;99.90;;;;;;5021461;28;20056;-76
2021/11/23 10:26:18;;;;;;;7.13;0.80;;;19.60;99.90;;;;;;5021358;28;20100;-76
2021/11/23 10:28:59;;;;;;;5.07;0.70;;;19.70;99.90;;;;;;5016880;28;20129;-76
2021/11/23 10:31:31;;;;;;;17.48;1.42;;;19.80;99.90;;;;;;5016763;28;20045;-75
2021/11/23 10:34:01;;;;;;;6.45;0.98;;;19.80;99.90;;;;;;5015881;28;20049;-76
2021/11/23 10:36:38;;;;;;;10.50;1.00;;;19.80;99.90;;;;;;5019187;28;20134;-76
2021/11/23 10:39:09;;;;;;;2.33;0.90;;;19.80;99.90;;;;;;5023150;28;20442;-76
2021/11/23 10:41:35;;;;;;;7.57;0.95;;;19.90;99.90;;;;;;5016283;28;20509;-76
2021/11/23 10:44:01;;;;;;;5.47;1.15;;;19.90;99.90;;;;;;4994077;28;20054;-75
2021/11/23 10:46:31;;;;;;;8.27;1.02;;;20.00;99.90;;;;;;5016866;28;20046;-76
2021/11/23 10:49:01;;;;;;;4.85;1.00;;;20.00;99.90;;;;;;5016803;28;20056;-76
2021/11/23 10:51:38;;;;;;;7.05;1.08;;;20.10;99.90;;;;;;5016894;28;20064;-76
2021/11/23 10:54:15;;;;;;;4.88;0.85;;;20.20;99.90;;;;;;5023133;28;20476;-76
2021/11/23 10:56:58;;;;;;;4.88;0.98;;;20.20;99.90;;;;;;5020019;28;20050;-77
2021/11/23 10:59:24;;;;;;;8.15;1.83;;;20.30;99.90;;;;;;5019239;28;20037;-76
2021/11/23 11:01:51;;;;;;;8.85;1.50;;;20.30;99.90;;;;;;5026482;28;20041;-76
2021/11/23 11:04:18;;;;;;;7.68;1.17;;;20.50;99.90;;;;;;5027094;28;20085;-76
2021/11/23 11:06:44;;;;;;;3.70;0.88;;;20.50;99.90;;;;;;5029121;28;20046;-77
2021/11/23 11:09:10;;;;;;;6.90;1.15;;;20.60;99.90;;;;;;5030501;28;20116;-77
2021/11/23 11:11:38;;;;;;;7.30;1.20;;;20.50;99.90;;;;;;5027661;28;20819;-76
2021/11/23 11:14:06;;;;;;;2.70;0.77;;;20.70;99.90;;;;;;5027415;28;20088;-76
2021/11/23 11:16:36;;;;;;;5.28;1.17;;;20.70;99.90;;;;;;5028119;28;20049;-77
2021/11/23 11:19:13;;;;;;;6.82;0.82;;;20.90;99.90;;;;;;5028804;28;20049;-77
2021/11/23 11:21:48;;;;;;;5.18;1.20;;;20.90;99.90;;;;;;5028189;28;20048;-77
2021/11/23 11:27:15;;;;;;;8.52;1.10;;;21.00;99.90;;;;;;5027386;28;20124;-76
2021/11/23 11:29:44;;;;;;;9.02;1.27;;;20.80;99.90;;;;;;5022488;28;20045;-76
2021/11/23 11:32:35;;;;;;;7.80;1.02;;;20.50;99.90;;;;;;5026038;28;20045;-77
2021/11/23 11:35:39;;;;;;;3.78;1.00;;;20.30;99.90;;;;;;5025968;28;20111;-77
2021/11/23 11:38:27;;;;;;;6.03;1.20;;;20.10;99.90;;;;;;5024388;28;20528;-78
2021/11/23 11:40:57;;;;;;;7.70;0.95;;;20.00;99.90;;;;;;5024680;28;20049;-78
2021/11/23 11:43:33;;;;;;;6.40;0.98;;;19.90;99.90;;;;;;5006263;28;20121;-77
2021/11/23 11:45:59;;;;;;;7.88;1.02;;;19.80;99.90;;;;;;5025024;28;20049;-76
2021/11/23 11:48:32;;;;;;;9.43;0.88;;;19.70;99.90;;;;;;5025326;28;20048;-76
2021/11/23 11:51:05;;;;;;;2.53;0.65;;;19.70;99.90;;;;;;5024343;28;20111;-77
2021/11/23 11:53:36;;;;;;;1.55;0.45;;;19.60;99.90;;;;;;5022726;28;20058;-76
2021/11/23 11:56:03;;;;;;;2.67;0.68;;;19.50;99.90;;;;;;5025832;28;20053;-76
2021/11/23 11:59:16;;;;;;;3.70;0.63;;;19.30;99.90;;;;;;5023810;28;20448;-77
2021/11/23 12:01:50;;;;;;;2.35;0.60;;;19.30;99.90;;;;;;4985910;28;20041;-77
2021/11/23 12:04:18;;;;;;;4.22;0.60;;;19.20;99.90;;;;;;5002492;28;20053;-76
2021/11/23 12:06:53;;;;;;;1.00;0.50;;;19.20;99.90;;;;;;5005905;28;20057;-76
2021/11/23 12:09:37;;;;;;;7.38;1.00;;;19.10;99.90;;;;;;5022357;28;20042;-76
2021/11/23 12:12:09;;;;;;;1.63;0.52;;;19.10;99.90;;;;;;5025855;28;20037;-77
2021/11/23 12:14:49;;;;;;;4.07;0.73;;;19.00;99.90;;;;;;5026728;28;20060;-76
2021/11/23 12:17:33;;;;;;;2.47;0.60;;;19.00;99.90;;;;;;5023969;28;20073;-76
2021/11/23 12:20:11;;;;;;;1.42;0.80;;;19.00;99.90;;;;;;5026143;28;20057;-77
2021/11/23 12:22:45;;;;;;;5.90;0.90;;;19.00;99.90;;;;;;5020134;28;20046;-76
2021/11/23 12:25:13;;;;;;;4.97;0.93;;;19.00;99.90;;;;;;5011878;28;20052;-75
2021/11/23 12:27:45;;;;;;;4.30;0.57;;;18.90;99.90;;;;;;5026323;28;20049;-75
2021/11/23 12:30:12;;;;;;;4.45;0.88;;;18.90;99.90;;;;;;5025689;28;20413;-76
2021/11/23 12:32:38;;;;;;;9.35;0.98;;;18.90;99.90;;;;;;5014202;28;20485;-75
2021/11/23 12:35:07;;;;;;;9.80;0.70;;;18.90;99.90;;;;;;5030016;28;20050;-76
2021/11/23 12:37:38;;;;;;;3.72;0.60;;;18.90;99.90;;;;;;5018515;28;20052;-76
2021/11/23 12:40:26;;;;;;;7.10;0.98;;;18.90;99.90;;;;;;5014904;28;20042;-75
2021/11/23 12:42:55;;;;;;;3.40;1.10;;;18.80;99.90;;;;;;5014119;28;20042;-76
2021/11/23 12:45:36;;;;;;;5.75;0.90;;;18.80;99.90;;;;;;5013926;28;20077;-77
2021/11/23 12:48:04;;;;;;;8.43;0.90;;;18.80;99.90;;;;;;5014532;28;20062;-77
2021/11/23 12:50:31;;;;;;;4.75;0.70;;;18.80;99.90;;;;;;5012108;28;20057;-77
2021/11/23 12:53:06;;;;;;;2.30;0.65;;;18.70;99.90;;;;;;5011260;28;20072;-76